Time;durP1;ratioP1;P1;durP2;ratioP2;P2;SDS_P1;SDS_P2;PMS_P1;PMS_P2;Temp;Humidity;BMP_temperature;BMP_pressure;BME280_temperature;BME280_humidity;BME280_pressure;Samples;Min_cycle;Max_cycle;Signal;HPM_P1;HPM_P2
2022/06/13 00:02:03;;;;;;;14.18;4.07;;;13.80;99.90;;;;;;4987845;28;20108;-86
2022/06/13 00:04:29;;;;;;;10.88;4.22;;;13.80;99.90;;;;;;4990764;28;20049;-85
2022/06/13 00:06:55;;;;;;;13.93;4.68;;;13.70;99.90;;;;;;4998390;28;20049;-86
2022/06/13 00:09:20;;;;;;;16.10;5.25;;;13.70;99.90;;;;;;4986460;28;20057;-85
2022/06/13 00:11:46;;;;;;;14.90;4.53;;;13.70;99.90;;;;;;5003508;28;20086;-86
2022/06/13 00:14:11;;;;;;;9.95;4.18;;;13.60;99.90;;;;;;4997516;28;20884;-86
2022/06/13 00:16:37;;;;;;;10.75;4.20;;;13.50;99.90;;;;;;4977614;28;20054;-86
2022/06/13 00:19:03;;;;;;;13.80;5.40;;;13.50;99.90;;;;;;4998940;28;20057;-86
2022/06/13 00:21:32;;;;;;;16.65;5.03;;;13.50;99.90;;;;;;4981372;28;20057;-87
2022/06/13 00:24:01;;;;;;;12.50;4.13;;;13.40;99.90;;;;;;4999138;28;20152;-86
2022/06/13 00:26:30;;;;;;;15.60;4.93;;;13.40;99.90;;;;;;4994435;28;20072;-86
2022/06/13 00:28:56;;;;;;;10.18;4.90;;;13.30;99.90;;;;;;5000538;28;20808;-86
2022/06/13 00:31:22;;;;;;;11.88;4.55;;;13.30;99.90;;;;;;5007232;28;20099;-85
2022/06/13 00:33:48;;;;;;;10.65;4.40;;;13.30;99.90;;;;;;4998106;28;20463;-86
2022/06/13 00:36:14;;;;;;;13.20;4.97;;;13.30;99.90;;;;;;4991585;28;20073;-85
2022/06/13 00:38:40;;;;;;;12.30;4.72;;;13.30;99.90;;;;;;5000394;28;20571;-86
2022/06/13 00:41:14;;;;;;;12.30;5.00;;;13.30;99.90;;;;;;5000349;28;20081;-86
2022/06/13 00:43:41;;;;;;;10.60;4.70;;;13.30;99.90;;;;;;5004366;28;20128;-86
2022/06/13 00:46:29;;;;;;;13.75;4.53;;;13.30;99.90;;;;;;4998145;28;20104;-86
2022/06/13 00:49:01;;;;;;;10.63;4.80;;;13.30;99.90;;;;;;4999166;28;20045;-86
2022/06/13 00:51:29;;;;;;;12.55;4.97;;;13.30;99.90;;;;;;4978044;28;20049;-86
2022/06/13 00:53:55;;;;;;;15.32;4.40;;;13.30;99.90;;;;;;5002008;28;20803;-85
2022/06/13 00:56:23;;;;;;;14.68;4.93;;;13.30;99.90;;;;;;4993602;28;20085;-86
2022/06/13 00:59:03;;;;;;;13.68;4.75;;;13.30;99.90;;;;;;4999967;28;20050;-86
2022/06/13 01:01:31;;;;;;;18.73;5.72;;;13.30;99.90;;;;;;4999065;28;20544;-85
2022/06/13 01:03:59;;;;;;;14.35;4.88;;;13.20;99.90;;;;;;5001114;28;20477;-88
2022/06/13 01:06:27;;;;;;;10.85;4.68;;;13.30;99.90;;;;;;4996085;28;20046;-85
2022/06/13 01:08:53;;;;;;;15.27;4.53;;;13.30;99.90;;;;;;4999383;28;20083;-86
2022/06/13 01:11:22;;;;;;;12.38;4.80;;;13.30;99.90;;;;;;5006923;28;20054;-86
2022/06/13 01:14:22;;;;;;;9.85;3.90;;;13.30;99.90;;;;;;5006986;28;20045;-87
2022/06/13 01:17:05;;;;;;;14.48;4.57;;;13.30;99.90;;;;;;5002738;28;20124;-85
2022/06/13 01:20:01;;;;;;;11.45;4.50;;;13.30;99.90;;;;;;5007099;28;20048;-85
2022/06/13 01:22:55;;;;;;;16.25;4.82;;;13.30;99.90;;;;;;4986695;28;20052;-85
2022/06/13 01:25:39;;;;;;;19.33;5.50;;;13.30;99.90;;;;;;5000364;28;20161;-85
2022/06/13 01:28:42;;;;;;;12.25;4.57;;;13.30;99.90;;;;;;4989675;28;20084;-86
2022/06/13 01:31:28;;;;;;;14.32;5.40;;;13.30;99.90;;;;;;5005652;28;20058;-86
2022/06/13 01:34:15;;;;;;;12.55;5.15;;;13.30;99.90;;;;;;4998788;28;20050;-86
2022/06/13 01:37:16;;;;;;;13.20;5.22;;;13.20;99.90;;;;;;5006525;28;20058;-85
2022/06/13 01:40:04;;;;;;;16.17;5.13;;;13.20;99.90;;;;;;4988230;28;20066;-85
2022/06/13 01:42:49;;;;;;;14.43;4.97;;;13.10;99.90;;;;;;5004458;28;20133;-85
2022/06/13 01:45:39;;;;;;;13.38;5.15;;;13.10;99.90;;;;;;4986223;28;20062;-86
2022/06/13 01:48:18;;;;;;;19.27;5.88;;;13.10;99.90;;;;;;5005105;28;20045;-85
2022/06/13 01:51:14;;;;;;;11.70;5.20;;;13.10;99.90;;;;;;4996627;28;20053;-86
2022/06/13 01:53:52;;;;;;;14.85;5.05;;;13.10;99.90;;;;;;4979924;28;20116;-85
2022/06/13 01:56:25;;;;;;;18.35;5.13;;;13.10;99.90;;;;;;4996410;28;20045;-86
2022/06/13 01:59:05;;;;;;;15.02;5.18;;;13.10;99.90;;;;;;5001557;28;20192;-85
2022/06/13 02:01:34;;;;;;;14.90;5.35;;;13.10;99.90;;;;;;5013489;28;20129;-86
2022/06/13 02:04:13;;;;;;;15.93;5.28;;;13.10;99.90;;;;;;5006622;28;20077;-85
2022/06/13 02:06:47;;;;;;;12.90;4.93;;;13.10;99.90;;;;;;5007692;28;20124;-86
2022/06/13 02:09:21;;;;;;;15.30;5.53;;;13.10;99.90;;;;;;5013945;28;20081;-85
2022/06/13 02:11:50;;;;;;;15.02;5.25;;;13.10;99.90;;;;;;5015418;28;20141;-85
2022/06/13 02:14:39;;;;;;;10.88;4.97;;;13.10;99.90;;;;;;4985496;28;20073;-85
2022/06/13 02:17:20;;;;;;;14.82;5.28;;;13.10;99.90;;;;;;5010437;28;20053;-85
2022/06/13 02:19:56;;;;;;;14.77;6.05;;;13.10;99.90;;;;;;5003573;28;20127;-86
2022/06/13 02:22:30;;;;;;;18.67;6.40;;;13.10;99.90;;;;;;5000817;28;20989;-86
2022/06/13 02:25:04;;;;;;;15.30;7.07;;;13.20;99.90;;;;;;4992148;28;20058;-86
2022/06/13 02:27:34;;;;;;;15.35;7.55;;;13.20;99.90;;;;;;5004624;28;20384;-85
2022/06/13 02:30:07;;;;;;;12.93;5.53;;;13.20;99.90;;;;;;5004761;28;20400;-85
2022/06/13 02:32:39;;;;;;;15.10;5.53;;;13.20;99.90;;;;;;5007917;28;20041;-85
2022/06/13 02:35:14;;;;;;;17.27;6.07;;;13.20;99.90;;;;;;5009349;28;20054;-85
2022/06/13 02:37:58;;;;;;;17.35;6.47;;;13.20;99.90;;;;;;5004526;28;20052;-84
2022/06/13 02:40:32;;;;;;;17.75;6.45;;;13.20;99.90;;;;;;4996079;28;20501;-85
2022/06/13 02:43:13;;;;;;;15.30;6.15;;;13.30;99.90;;;;;;4998475;28;20061;-85
2022/06/13 02:45:46;;;;;;;15.75;6.03;;;13.20;99.90;;;;;;4986092;28;20062;-86
2022/06/13 02:48:19;;;;;;;14.43;6.30;;;13.30;99.90;;;;;;4980035;28;20495;-85
2022/06/13 02:50:54;;;;;;;16.13;6.80;;;13.30;99.90;;;;;;4986980;28;20085;-85
2022/06/13 02:53:38;;;;;;;;;;;13.30;99.90;;;;;;4986925;28;20046;-85
2022/06/13 02:56:12;;;;;;;19.90;6.70;;;13.30;99.90;;;;;;4987076;28;19925;-84
2022/06/13 02:58:46;;;;;;;17.20;6.05;;;13.30;99.90;;;;;;4980807;28;20093;-85
2022/06/13 03:01:24;;;;;;;14.52;7.13;;;13.30;99.90;;;;;;4981130;28;20050;-85
2022/06/13 03:04:06;;;;;;;17.25;6.85;;;13.40;99.90;;;;;;4980506;28;20120;-85
2022/06/13 03:06:43;;;;;;;19.88;6.60;;;13.40;99.90;;;;;;4981982;28;20133;-85
2022/06/13 03:09:22;;;;;;;17.85;7.20;;;13.40;99.90;;;;;;4980432;28;20046;-85
2022/06/13 03:11:53;;;;;;;13.70;5.60;;;13.40;99.90;;;;;;4978936;28;20121;-85
2022/06/13 03:14:27;;;;;;;20.35;6.80;;;13.40;99.90;;;;;;4969313;28;20057;-86
2022/06/13 03:17:05;;;;;;;18.15;7.50;;;13.40;99.90;;;;;;4980913;28;20053;-85
2022/06/13 03:19:36;;;;;;;20.23;6.90;;;13.50;99.90;;;;;;4980385;28;20042;-85
2022/06/13 03:22:23;;;;;;;17.42;6.72;;;13.50;99.90;;;;;;4979830;28;20084;-86
2022/06/13 03:25:17;;;;;;;19.40;7.30;;;13.50;99.90;;;;;;4980033;28;20779;-85
2022/06/13 03:27:45;;;;;;;21.13;7.15;;;13.50;99.90;;;;;;4978510;28;20182;-86
2022/06/13 03:30:21;;;;;;;17.98;7.07;;;13.50;99.90;;;;;;4978784;28;20057;-85
2022/06/13 03:35:44;;;;;;;20.05;8.52;;;13.40;99.90;;;;;;4980852;28;20058;-85
2022/06/13 03:38:19;;;;;;;15.77;7.55;;;13.40;99.90;;;;;;4972655;28;20082;-85
2022/06/13 03:40:50;;;;;;;17.05;7.20;;;13.40;99.90;;;;;;4967810;28;20093;-85
2022/06/13 03:43:28;;;;;;;15.95;6.40;;;13.50;99.90;;;;;;4976326;28;20601;-85
2022/06/13 03:46:11;;;;;;;14.00;6.32;;;13.40;99.90;;;;;;4986685;28;20062;-85
2022/06/13 03:48:49;;;;;;;21.55;5.95;;;13.50;99.90;;;;;;4981945;28;20476;-85
2022/06/13 03:51:23;;;;;;;15.10;5.60;;;13.50;99.90;;;;;;5000090;28;20107;-85
2022/06/13 03:53:54;;;;;;;17.42;6.50;;;13.50;99.90;;;;;;4997366;28;20127;-85
2022/06/13 03:56:40;;;;;;;15.13;6.38;;;13.50;99.90;;;;;;5000782;28;20095;-85
2022/06/13 03:59:19;;;;;;;16.63;6.05;;;13.50;99.90;;;;;;5000132;28;20170;-85
2022/06/13 04:01:52;;;;;;;19.02;6.15;;;13.50;99.90;;;;;;4983333;28;20129;-85
2022/06/13 04:04:30;;;;;;;17.70;5.85;;;13.60;99.90;;;;;;4997398;28;20060;-85
2022/06/13 04:06:55;;;;;;;14.95;6.07;;;13.60;99.90;;;;;;4999850;28;20056;-85
2022/06/13 04:09:25;;;;;;;16.63;6.40;;;13.50;99.90;;;;;;4998031;28;20046;-86
2022/06/13 04:12:12;;;;;;;17.60;5.82;;;13.50;99.90;;;;;;4974127;28;20060;-83
2022/06/13 04:15:02;;;;;;;17.88;6.22;;;13.50;99.90;;;;;;4999234;28;20046;-84
2022/06/13 04:18:10;;;;;;;16.40;5.50;;;13.50;99.90;;;;;;4981778;28;20050;-85
2022/06/13 04:21:05;;;;;;;14.48;5.90;;;13.50;99.90;;;;;;4991086;28;20059;-85
2022/06/13 04:23:35;;;;;;;18.70;5.97;;;13.40;99.90;;;;;;4980859;28;20053;-85
2022/06/13 04:26:12;;;;;;;17.98;5.70;;;13.40;99.90;;;;;;4982507;28;20049;-84
2022/06/13 04:28:46;;;;;;;15.88;5.43;;;13.30;99.90;;;;;;4997711;28;20053;-85
2022/06/13 04:31:13;;;;;;;17.08;5.50;;;13.30;99.90;;;;;;4997377;28;20125;-85
2022/06/13 04:33:57;;;;;;;15.18;5.40;;;13.30;99.90;;;;;;4977399;28;20066;-85
2022/06/13 04:36:24;;;;;;;13.30;5.97;;;13.30;99.90;;;;;;4987986;28;20061;-84
2022/06/13 04:38:54;;;;;;;10.55;5.10;;;13.40;99.90;;;;;;5002826;28;20046;-82
2022/06/13 04:41:23;;;;;;;16.80;5.32;;;13.30;99.90;;;;;;5001293;28;20053;-83
2022/06/13 04:43:54;;;;;;;11.88;4.90;;;13.30;99.90;;;;;;5001056;28;20042;-81
2022/06/13 04:46:23;;;;;;;14.07;4.47;;;13.30;99.90;;;;;;5001326;28;20065;-82
2022/06/13 04:48:51;;;;;;;13.05;5.40;;;13.30;99.90;;;;;;5001511;28;20131;-82
2022/06/13 04:51:28;;;;;;;10.77;4.40;;;13.30;99.90;;;;;;5001033;28;20587;-83
2022/06/13 04:54:29;;;;;;;12.00;4.43;;;13.30;99.90;;;;;;4983835;28;20874;-83
2022/06/13 04:56:59;;;;;;;10.63;3.55;;;13.30;99.90;;;;;;4999940;28;20045;-83
2022/06/13 04:59:26;;;;;;;12.02;3.58;;;13.30;99.90;;;;;;5000918;28;20054;-83
2022/06/13 05:01:53;;;;;;;10.20;3.03;;;13.30;99.90;;;;;;4983544;28;20050;-82
2022/06/13 05:04:29;;;;;;;10.70;3.17;;;13.30;99.90;;;;;;4982484;28;20865;-83
2022/06/13 05:07:14;;;;;;;8.73;2.53;;;13.40;99.90;;;;;;5001159;28;20606;-84
2022/06/13 05:09:56;;;;;;;11.88;3.53;;;13.50;99.90;;;;;;4983555;28;20054;-83
2022/06/13 05:12:35;;;;;;;8.88;2.60;;;13.60;99.90;;;;;;4968467;28;20053;-84
2022/06/13 05:15:12;;;;;;;10.48;3.03;;;13.80;99.90;;;;;;5000767;28;20138;-82
2022/06/13 05:18:08;;;;;;;9.77;2.05;;;13.90;99.90;;;;;;5000974;28;20101;-83
2022/06/13 05:21:00;;;;;;;9.05;2.20;;;14.10;99.90;;;;;;4995669;28;20085;-83
2022/06/13 05:24:00;;;;;;;12.40;2.03;;;14.20;99.90;;;;;;4999447;28;20041;-84
2022/06/13 05:26:29;;;;;;;8.45;1.98;;;14.20;99.90;;;;;;5002128;28;20042;-83
2022/06/13 05:28:56;;;;;;;6.55;1.67;;;14.20;99.90;;;;;;4974160;28;20441;-84
2022/06/13 05:31:22;;;;;;;5.47;1.40;;;14.20;99.90;;;;;;4969078;28;20046;-84
2022/06/13 05:33:50;;;;;;;5.88;1.38;;;14.10;99.90;;;;;;5000530;28;20707;-85
2022/06/13 05:36:21;;;;;;;6.05;1.45;;;13.90;99.90;;;;;;4988646;28;20104;-84
2022/06/13 05:38:55;;;;;;;8.30;2.00;;;13.80;99.90;;;;;;4999760;28;20121;-82
2022/06/13 05:41:21;;;;;;;5.78;1.77;;;13.70;99.90;;;;;;5001844;28;20041;-83
2022/06/13 05:43:47;;;;;;;6.80;1.45;;;13.50;99.90;;;;;;4997714;28;20084;-82
2022/06/13 05:46:26;;;;;;;4.45;1.02;;;13.50;99.90;;;;;;4999259;28;20535;-83
2022/06/13 05:48:52;;;;;;;4.78;1.10;;;13.60;99.90;;;;;;4982393;28;20068;-83
2022/06/13 05:51:18;;;;;;;5.50;1.48;;;13.50;99.90;;;;;;4999730;28;20042;-82
2022/06/13 05:53:44;;;;;;;6.88;1.30;;;13.40;99.90;;;;;;4999934;28;20386;-82
2022/06/13 05:56:11;;;;;;;7.07;1.10;;;13.50;99.90;;;;;;4991314;28;20073;-81
2022/06/13 05:58:37;;;;;;;4.25;1.13;;;13.40;99.90;;;;;;4982988;28;20441;-77
2022/06/13 06:01:07;;;;;;;5.30;1.00;;;13.30;99.90;;;;;;4991873;28;20094;-82
2022/06/13 06:03:33;;;;;;;3.15;0.70;;;13.30;99.90;;;;;;4983796;28;20148;-80
2022/06/13 06:06:00;;;;;;;3.97;0.93;;;13.30;99.90;;;;;;5002621;28;20049;-82
2022/06/13 06:08:30;;;;;;;4.45;0.90;;;13.30;99.90;;;;;;4997449;28;20060;-85
2022/06/13 06:10:57;;;;;;;4.97;0.90;;;13.30;99.90;;;;;;4989189;28;20041;-80
2022/06/13 06:13:24;;;;;;;4.78;0.77;;;13.30;99.90;;;;;;4995556;28;20271;-80
2022/06/13 06:15:51;;;;;;;4.80;0.82;;;13.30;99.90;;;;;;4998253;28;20497;-87
2022/06/13 06:18:18;;;;;;;5.97;0.98;;;13.40;99.90;;;;;;4988937;28;20046;-79
2022/06/13 06:20:44;;;;;;;4.60;0.90;;;13.50;99.90;;;;;;4997175;28;20045;-82
2022/06/13 06:23:12;;;;;;;2.83;0.65;;;13.70;99.90;;;;;;4979136;28;20045;-82
2022/06/13 06:25:38;;;;;;;5.70;0.82;;;13.80;99.90;;;;;;4980058;28;20753;-82
2022/06/13 06:28:04;;;;;;;4.55;0.80;;;13.90;99.90;;;;;;4981440;28;20492;-82
2022/06/13 06:30:31;;;;;;;2.40;0.90;;;14.00;99.90;;;;;;4981586;28;20050;-80
2022/06/13 06:32:57;;;;;;;5.13;0.98;;;14.10;99.90;;;;;;4991350;28;20037;-79
2022/06/13 06:35:28;;;;;;;6.78;1.00;;;14.30;99.90;;;;;;4990941;28;20155;-82
2022/06/13 06:37:55;;;;;;;6.80;1.25;;;14.30;99.90;;;;;;4980615;28;20136;-83
2022/06/13 06:40:23;;;;;;;6.93;1.10;;;14.40;99.90;;;;;;4981652;28;20123;-83
2022/06/13 06:42:49;;;;;;;5.82;1.05;;;14.60;99.90;;;;;;5000027;28;20046;-83
2022/06/13 06:45:15;;;;;;;11.02;1.55;;;14.80;99.90;;;;;;5000234;28;20607;-82
2022/06/13 06:47:41;;;;;;;7.50;1.08;;;15.00;99.90;;;;;;4998968;28;20103;-82
2022/06/13 06:50:13;;;;;;;5.75;0.80;;;15.10;99.90;;;;;;4999035;28;20108;-83
2022/06/13 06:52:39;;;;;;;8.32;1.38;;;15.10;99.90;;;;;;4998309;28;20042;-82
2022/06/13 07:00:37;;;;;;;7.57;1.30;;;15.20;99.90;;;;;;4994571;28;20639;-82
2022/06/13 07:03:03;;;;;;;10.20;1.95;;;15.30;99.90;;;;;;4998464;28;20050;-83
2022/06/13 07:05:28;;;;;;;4.88;1.00;;;15.30;99.90;;;;;;5000582;28;20046;-81
2022/06/13 07:07:54;;;;;;;7.32;1.40;;;15.40;99.90;;;;;;5000211;28;20127;-84
2022/06/13 07:10:19;;;;;;;4.50;1.42;;;15.30;99.90;;;;;;4999184;28;20054;-82
2022/06/13 07:12:45;;;;;;;5.32;1.30;;;15.40;99.90;;;;;;4982039;28;20891;-82
2022/06/13 07:15:14;;;;;;;7.78;0.98;;;15.60;99.90;;;;;;4999506;28;20053;-82
2022/06/13 07:17:40;;;;;;;6.25;1.23;;;15.90;99.90;;;;;;4998363;28;20050;-82
2022/06/13 07:20:06;;;;;;;10.68;1.40;;;16.10;99.90;;;;;;4999952;28;20097;-82
2022/06/13 07:22:31;;;;;;;5.85;1.00;;;16.30;99.90;;;;;;4980769;28;20060;-83
2022/06/13 07:24:57;;;;;;;7.50;1.33;;;16.60;99.90;;;;;;4999436;28;20764;-82
2022/06/13 07:27:23;;;;;;;10.25;1.40;;;16.80;99.90;;;;;;4999651;28;20120;-82
2022/06/13 07:29:48;;;;;;;8.95;1.40;;;17.20;99.90;;;;;;4998270;28;20081;-82
2022/06/13 07:32:25;;;;;;;5.95;1.05;;;17.50;99.90;;;;;;4999576;28;20034;-82
2022/06/13 07:34:52;;;;;;;4.22;1.33;;;17.30;99.90;;;;;;4998976;28;20053;-84
2022/06/13 07:40:08;;;;;;;5.25;1.10;;;16.50;99.90;;;;;;4981368;28;20050;-82
2022/06/13 07:42:43;;;;;;;4.05;0.90;;;16.10;99.90;;;;;;4999425;28;20060;-83
2022/06/13 07:45:16;;;;;;;6.13;1.08;;;15.80;99.90;;;;;;4980548;28;20196;-82
2022/06/13 07:47:43;;;;;;;4.82;0.98;;;15.50;99.90;;;;;;4999450;28;20068;-82
2022/06/13 07:50:12;;;;;;;4.72;1.02;;;15.50;99.90;;;;;;4999261;28;20156;-84
2022/06/13 07:52:37;;;;;;;5.93;1.13;;;15.70;99.90;;;;;;4998912;28;20052;-84
2022/06/13 07:55:03;;;;;;;4.20;1.00;;;16.00;99.90;;;;;;4997661;28;20058;-81
2022/06/13 07:57:29;;;;;;;4.05;1.00;;;16.20;99.90;;;;;;4984622;28;20054;-85
2022/06/13 07:59:54;;;;;;;12.27;1.40;;;16.20;99.90;;;;;;4986673;28;20046;-83
2022/06/13 08:02:20;;;;;;;6.40;1.30;;;16.10;99.90;;;;;;4995293;28;20848;-83
2022/06/13 08:04:46;;;;;;;11.73;1.73;;;15.80;99.90;;;;;;4985780;28;20085;-90
2022/06/13 08:07:16;;;;;;;10.07;1.52;;;15.60;99.90;;;;;;5001287;28;20081;-85
2022/06/13 08:09:41;;;;;;;7.50;1.23;;;15.40;99.90;;;;;;4983502;28;20156;-82
2022/06/13 08:12:10;;;;;;;8.80;1.45;;;15.20;99.90;;;;;;4993179;28;20810;-83
2022/06/13 08:14:35;;;;;;;8.70;1.70;;;15.10;99.90;;;;;;4995960;28;20514;-84
2022/06/13 08:17:01;;;;;;;5.70;1.20;;;15.00;99.90;;;;;;5003112;28;20068;-83
2022/06/13 08:19:27;;;;;;;6.32;1.42;;;15.00;99.90;;;;;;5002844;28;20042;-84
2022/06/13 08:21:53;;;;;;;10.43;1.23;;;15.10;99.90;;;;;;4997198;28;20564;-84
2022/06/13 08:24:18;;;;;;;11.68;1.85;;;15.30;99.90;;;;;;4975119;28;20053;-83
2022/06/13 08:26:44;;;;;;;7.60;1.38;;;15.40;99.90;;;;;;4983496;28;20038;-83
2022/06/13 08:29:10;;;;;;;5.25;1.48;;;15.40;99.90;;;;;;4974309;28;20045;-83
2022/06/13 08:31:37;;;;;;;5.53;0.75;;;15.40;99.90;;;;;;4997795;28;20034;-82
2022/06/13 08:34:04;;;;;;;4.38;1.00;;;15.30;99.90;;;;;;4972399;28;20065;-83
2022/06/13 08:36:30;;;;;;;8.15;1.10;;;15.30;99.90;;;;;;4983479;28;20090;-83
2022/06/13 08:38:55;;;;;;;10.32;1.40;;;15.20;99.90;;;;;;5020972;28;20052;-84
2022/06/13 08:41:28;;;;;;;7.32;1.30;;;15.40;99.90;;;;;;4990701;28;20046;-84
2022/06/13 08:44:36;;;;;;;3.90;0.90;;;15.70;99.90;;;;;;5000732;28;20160;-84
2022/06/13 08:47:16;;;;;;;7.82;1.67;;;15.90;99.90;;;;;;4976165;28;20065;-84
2022/06/13 08:50:12;;;;;;;3.33;0.85;;;16.10;99.90;;;;;;4981049;28;20059;-83
2022/06/13 08:52:48;;;;;;;6.65;0.80;;;16.20;99.90;;;;;;4983876;28;20073;-81
2022/06/13 08:55:47;;;;;;;19.67;1.58;;;16.30;99.90;;;;;;5002858;28;20050;-83
2022/06/13 08:58:21;;;;;;;3.28;0.65;;;16.40;99.90;;;;;;4989123;28;20096;-84
2022/06/13 09:01:19;;;;;;;3.63;0.70;;;16.50;99.90;;;;;;4984188;28;20092;-83
2022/06/13 09:04:07;;;;;;;2.30;0.50;;;16.70;99.90;;;;;;4994092;28;20071;-82
2022/06/13 09:06:52;;;;;;;2.47;0.60;;;16.90;99.90;;;;;;4984652;28;20439;-82
2022/06/13 09:09:25;;;;;;;5.90;1.15;;;17.10;99.90;;;;;;4994685;28;20805;-84
2022/06/13 09:12:33;;;;;;;4.72;0.80;;;17.10;99.90;;;;;;4996449;28;20678;-81
2022/06/13 09:15:18;;;;;;;5.40;0.90;;;17.20;99.90;;;;;;4984264;28;20061;-83
2022/06/13 09:18:14;;;;;;;5.55;0.88;;;17.40;99.90;;;;;;4996939;28;20150;-82
2022/06/13 09:20:49;;;;;;;5.20;0.70;;;17.50;99.90;;;;;;4986040;28;20084;-84
2022/06/13 09:23:19;;;;;;;6.90;1.08;;;17.70;99.90;;;;;;5004049;28;20050;-85
2022/06/13 09:26:09;;;;;;;6.15;1.10;;;17.80;99.90;;;;;;5003620;28;20041;-82
2022/06/13 09:28:55;;;;;;;5.65;0.93;;;17.80;99.90;;;;;;5001253;28;20881;-85
2022/06/13 09:31:30;;;;;;;3.70;1.02;;;17.60;99.90;;;;;;4981101;28;20046;-85
2022/06/13 09:34:06;;;;;;;5.90;1.00;;;17.30;99.90;;;;;;4985244;28;20815;-84
2022/06/13 09:36:36;;;;;;;5.25;0.60;;;17.20;99.90;;;;;;4989165;28;20862;-82
2022/06/13 09:39:12;;;;;;;4.88;0.80;;;17.20;99.90;;;;;;4985472;28;20049;-82
2022/06/13 09:41:46;;;;;;;9.48;1.52;;;17.20;99.90;;;;;;4984520;28;20054;-82
2022/06/13 09:44:31;;;;;;;4.35;1.20;;;17.00;99.90;;;;;;4982412;28;20477;-80
2022/06/13 09:47:18;;;;;;;5.45;0.93;;;16.90;99.90;;;;;;4991860;28;20062;-80
2022/06/13 09:50:04;;;;;;;3.38;0.80;;;16.60;99.90;;;;;;4981921;28;20046;-80
2022/06/13 09:52:56;;;;;;;5.15;0.80;;;16.50;99.90;;;;;;4969417;28;20046;-80
2022/06/13 09:55:30;;;;;;;7.22;0.82;;;16.40;99.90;;;;;;4987263;28;20042;-81
2022/06/13 09:58:15;;;;;;;5.95;0.82;;;16.40;99.90;;;;;;4997255;28;20088;-80
2022/06/13 10:00:50;;;;;;;5.97;0.80;;;16.30;99.90;;;;;;4982336;28;20049;-81
2022/06/13 10:03:32;;;;;;;3.03;0.65;;;16.20;99.90;;;;;;4983382;28;20680;-80
2022/06/13 10:06:09;;;;;;;6.53;1.10;;;16.20;99.90;;;;;;4999606;28;20050;-80
2022/06/13 10:09:14;;;;;;;7.95;0.82;;;16.30;99.90;;;;;;4989579;28;20157;-82
2022/06/13 10:11:52;;;;;;;9.38;1.20;;;16.60;99.90;;;;;;4995917;28;20071;-81
2022/06/13 10:14:42;;;;;;;5.72;0.85;;;16.90;99.90;;;;;;4983358;28;20054;-80
2022/06/13 10:17:22;;;;;;;6.65;0.98;;;17.20;99.90;;;;;;4981974;28;20049;-81
2022/06/13 10:20:09;;;;;;;4.60;0.77;;;17.20;99.90;;;;;;4993827;28;20252;-81
2022/06/13 10:23:07;;;;;;;6.85;0.93;;;17.20;99.90;;;;;;5000150;28;20057;-82
2022/06/13 10:26:01;;;;;;;8.13;2.08;;;17.10;99.90;;;;;;4971783;28;20042;-79
2022/06/13 10:29:00;;;;;;;8.20;1.35;;;17.20;99.90;;;;;;4987415;28;20082;-79
2022/06/13 10:31:55;;;;;;;7.68;1.08;;;17.50;99.90;;;;;;4988204;28;20049;-79
2022/06/13 10:34:34;;;;;;;6.90;1.10;;;17.70;99.90;;;;;;4982679;28;20042;-79
2022/06/13 10:37:27;;;;;;;8.07;1.25;;;17.60;99.90;;;;;;4998909;28;20530;-79
2022/06/13 10:39:58;;;;;;;7.15;1.10;;;17.40;99.90;;;;;;4995846;28;20053;-78
2022/06/13 10:42:27;;;;;;;5.40;1.00;;;17.20;99.90;;;;;;4984192;28;20426;-79
2022/06/13 10:44:53;;;;;;;6.97;1.10;;;17.20;99.90;;;;;;4986172;28;20062;-78
2022/06/13 10:47:39;;;;;;;5.28;1.08;;;17.40;99.90;;;;;;4966102;28;20116;-79
2022/06/13 10:50:32;;;;;;;6.18;1.23;;;17.50;99.90;;;;;;4997195;28;20091;-79
2022/06/13 10:53:06;;;;;;;7.82;1.55;;;17.50;99.90;;;;;;4963713;28;20060;-81
2022/06/13 10:55:38;;;;;;;7.83;1.60;;;17.40;99.90;;;;;;4983116;28;20048;-81
2022/06/13 10:58:13;;;;;;;8.77;1.27;;;17.30;99.90;;;;;;4978830;28;21610;-81
2022/06/13 11:00:41;;;;;;;8.30;1.50;;;17.10;99.90;;;;;;4999330;28;20069;-80
2022/06/13 11:03:15;;;;;;;6.80;1.30;;;17.10;99.90;;;;;;5000642;28;20049;-79
2022/06/13 11:06:13;;;;;;;8.38;1.20;;;17.00;99.90;;;;;;4989718;28;20061;-81
2022/06/13 11:08:39;;;;;;;6.60;1.30;;;17.10;99.90;;;;;;4984250;28;20089;-80
2022/06/13 11:11:16;;;;;;;10.40;2.17;;;17.20;99.90;;;;;;4976891;28;20050;-80
2022/06/13 11:13:52;;;;;;;6.85;1.50;;;17.40;99.90;;;;;;4985179;28;20061;-80
2022/06/13 11:25:01;;;;;;;7.15;0.95;;;17.20;99.90;;;;;;4979232;28;20172;-80
2022/06/13 11:27:41;;;;;;;7.95;1.33;;;17.40;99.90;;;;;;4972504;28;20153;-80
2022/06/13 11:30:25;;;;;;;8.25;1.30;;;17.60;99.90;;;;;;4972989;28;20100;-81
2022/06/13 11:33:09;;;;;;;14.30;1.52;;;17.70;99.90;;;;;;4987045;28;20053;-80
2022/06/13 11:35:46;;;;;;;6.53;1.73;;;17.70;99.90;;;;;;4970602;28;20050;-81
2022/06/13 11:38:22;;;;;;;9.95;1.40;;;17.60;99.90;;;;;;4968795;28;20050;-81
2022/06/13 11:41:13;;;;;;;8.25;1.23;;;17.50;99.90;;;;;;4980497;28;20058;-81
2022/06/13 11:43:55;;;;;;;7.18;1.40;;;17.40;99.90;;;;;;4990582;28;20146;-80
2022/06/13 11:46:24;;;;;;;8.02;1.35;;;17.40;99.90;;;;;;4982326;28;20487;-80
2022/06/13 11:48:53;;;;;;;7.43;1.42;;;17.40;99.90;;;;;;4963717;28;20058;-81
2022/06/13 11:51:27;;;;;;;11.95;1.70;;;17.50;99.90;;;;;;4980873;28;20513;-81
2022/06/13 11:53:57;;;;;;;11.02;1.42;;;17.70;99.90;;;;;;4978507;28;20096;-81
2022/06/13 11:56:27;;;;;;;7.68;1.23;;;17.80;99.90;;;;;;5000499;28;20053;-80
2022/06/13 11:58:55;;;;;;;8.02;1.00;;;17.80;99.90;;;;;;5000667;28;20049;-80
2022/06/13 12:01:30;;;;;;;8.73;1.38;;;17.60;99.90;;;;;;4999734;28;20038;-80
2022/06/13 12:04:11;;;;;;;8.55;1.55;;;17.50;99.90;;;;;;4981455;28;20073;-81
2022/06/13 12:06:43;;;;;;;8.88;1.63;;;17.50;99.90;;;;;;4999606;28;20057;-80
2022/06/13 12:09:20;;;;;;;10.63;1.30;;;17.50;99.90;;;;;;4999850;28;20133;-80
2022/06/13 12:12:00;;;;;;;8.60;1.40;;;17.50;99.90;;;;;;4987165;28;20660;-81
2022/06/13 12:14:33;;;;;;;7.25;1.55;;;17.60;99.90;;;;;;4990551;28;20046;-83
2022/06/13 12:17:05;;;;;;;9.10;1.13;;;17.70;99.90;;;;;;5002086;28;20049;-86
2022/06/13 12:19:37;;;;;;;5.47;1.10;;;17.90;99.90;;;;;;4998069;28;20146;-81
2022/06/13 12:22:24;;;;;;;9.80;1.25;;;17.90;99.90;;;;;;4999758;28;20046;-82
2022/06/13 12:25:31;;;;;;;7.03;1.05;;;18.00;99.90;;;;;;5000256;28;20050;-84
2022/06/13 12:28:31;;;;;;;7.22;1.67;;;18.00;99.90;;;;;;4968738;28;20065;-82
2022/06/13 12:31:18;;;;;;;4.05;0.80;;;17.90;99.90;;;;;;4999686;28;20042;-82
2022/06/13 12:34:03;;;;;;;7.68;1.15;;;17.80;99.90;;;;;;4994244;28;20121;-81
2022/06/13 12:36:47;;;;;;;7.05;1.13;;;17.70;99.90;;;;;;4984661;28;20572;-82
2022/06/13 12:39:42;;;;;;;8.07;1.23;;;17.70;99.90;;;;;;4998572;28;20684;-81
2022/06/13 12:42:10;;;;;;;;;;;17.80;99.90;;;;;;4946026;28;20063;-82
2022/06/13 12:44:47;;;;;;;8.30;1.08;;;17.80;99.90;;;;;;4990041;28;19926;-82
2022/06/13 12:47:33;;;;;;;10.52;1.85;;;17.80;99.90;;;;;;4998227;28;20583;-82
2022/06/13 12:49:59;;;;;;;9.23;1.92;;;17.90;99.90;;;;;;4961594;28;20061;-81
2022/06/13 12:52:30;;;;;;;10.25;1.48;;;17.80;99.90;;;;;;4974593;28;20042;-81
2022/06/13 12:55:27;;;;;;;11.32;2.38;;;17.80;99.90;;;;;;5000184;28;20049;-81
2022/06/13 12:57:58;;;;;;;8.05;1.58;;;17.70;99.90;;;;;;5003481;28;20141;-84
2022/06/13 13:00:45;;;;;;;8.52;1.27;;;17.60;99.90;;;;;;5004887;28;20064;-82
2022/06/13 13:03:46;;;;;;;6.28;1.20;;;17.50;99.90;;;;;;4996384;28;20157;-85
2022/06/13 13:06:16;;;;;;;6.82;1.05;;;17.50;99.90;;;;;;5005480;28;20053;-83
2022/06/13 13:09:12;;;;;;;8.32;1.25;;;17.50;99.90;;;;;;5003138;28;20046;-84
2022/06/13 13:12:16;;;;;;;6.15;1.00;;;17.60;99.90;;;;;;4985369;28;20102;-82
2022/06/13 13:14:47;;;;;;;6.68;1.10;;;17.80;99.90;;;;;;5002198;28;20097;-82
2022/06/13 13:17:40;;;;;;;7.22;1.10;;;17.90;99.90;;;;;;5002720;28;20042;-80
2022/06/13 13:20:29;;;;;;;7.50;1.52;;;18.00;99.90;;;;;;4981952;28;20077;-80
2022/06/13 13:23:37;;;;;;;5.78;1.33;;;17.90;99.90;;;;;;5001022;28;20559;-81
2022/06/13 13:26:27;;;;;;;8.80;1.02;;;18.00;99.90;;;;;;4996954;28;20156;-81
2022/06/13 13:29:13;;;;;;;5.88;1.70;;;18.20;99.90;;;;;;5012565;28;20292;-81
2022/06/13 13:31:51;;;;;;;7.45;1.10;;;18.10;99.90;;;;;;5002053;28;20178;-82
2022/06/13 13:34:38;;;;;;;6.85;0.85;;;18.10;99.90;;;;;;4983240;28;20042;-82
2022/06/13 13:37:28;;;;;;;8.75;0.95;;;18.20;99.90;;;;;;4997326;28;20738;-81
2022/06/13 13:40:03;;;;;;;4.95;0.90;;;18.40;99.90;;;;;;4989323;28;20054;-81
2022/06/13 13:42:43;;;;;;;5.43;0.63;;;18.60;99.90;;;;;;5010009;28;20046;-80
2022/06/13 13:45:33;;;;;;;4.35;0.82;;;18.60;99.90;;;;;;4994891;28;20136;-80
2022/06/13 13:48:41;;;;;;;4.38;0.80;;;18.70;99.90;;;;;;4982206;28;20852;-80
2022/06/13 13:51:19;;;;;;;3.67;0.80;;;18.90;99.90;;;;;;4985345;28;20696;-80